»·PEaware :: BLADE31 KSPS-KSPS

BLADE31 :: KSPS-KSPS

FLIGHT INFORMATION

Flight Status: Arrived
Operator: Unknown
More flights by this operator :: More flights under this callsign
Pilot: 80 FTW ENJJPT (22981)
Aircraft: BEECH AIRCRAFT T-6A TEXAN
(TEX2)
More flights by this aircraft type
Origin: KSPS Sheppard AFB/Wichita Falls Mu
United States
Destination: KSPS Sheppard AFB/Wichita Falls Mu
United States
More flights between these airports :: More routes between these airports
Route: +
File this flight plan on PilotEdge
Remarks:
Altitude:
(Current/Filed)
0ft
Speed:
(Current/Filed)
0kts
Departed: 20-May-20 08:31 AM
Arrived: 20-May-20 09:23 AM
Distance/Time
Traveled:
1nm/0:52
Distance/Time
To Go:
Arrived

Flight Plot

Page will automatically refresh every two minutes.

Flight plan parsing failed; only flown route is shown


Map Options




Map Legend


Flown Route
Filed Route
Departure Airport
Arrival Airport
Navaid (VOR, NDB)
Fix

Horizontal Profiles

Position Reports

Time Latitude Longitude Heading Altitude Ground
Speed
20-May-20 08:15 33.999829 -98.502925 337 1022ft 0kts
20-May-20 08:16 33.999873 -98.502958 321 1022ft 0kts
20-May-20 08:17 33.999873 -98.502958 321 1022ft 0kts
20-May-20 08:18 33.999873 -98.502958 321 1022ft 0kts
20-May-20 08:19 33.999873 -98.502958 321 1022ft 0kts
20-May-20 08:20 33.999874 -98.502958 324 1022ft 0kts
20-May-20 08:21 33.999874 -98.502958 324 1022ft 0kts
20-May-20 08:22 33.999883 -98.502964 331 1022ft 0kts
20-May-20 08:23 34.001568 -98.503422 335 1022ft 15kts
20-May-20 08:24 34.004384 -98.502418 358 1022ft 15kts
20-May-20 08:25 34.008595 -98.500361 53 1022ft 17kts
20-May-20 08:26 34.010577 -98.495274 353 1022ft 11kts
20-May-20 08:27 34.010913 -98.494479 106 1022ft 0kts
20-May-20 08:28 34.010838 -98.493968 67 1022ft 0kts
20-May-20 08:29 34.010904 -98.493100 156 1022ft 0kts
20-May-20 08:30 33.977315 -98.476673 143 1542ft 227kts
20-May-20 08:31 34.014630 -98.459473 326 2115ft 211kts
20-May-20 08:32 34.065805 -98.480940 262 1978ft 201kts
20-May-20 08:33 34.028552 -98.501545 158 2078ft 205kts
20-May-20 08:34 34.018551 -98.481161 344 1955ft 138kts
20-May-20 08:35 34.012026 -98.493576 157 1065ft 107kts
20-May-20 08:36 33.977520 -98.471277 94 1561ft 206kts
20-May-20 08:37 34.022476 -98.459670 343 2181ft 215kts
20-May-20 08:38 34.049441 -98.437115 115 2994ft 240kts
20-May-20 08:39 34.026252 -98.390497 350 1946ft 222kts
20-May-20 08:40 34.039617 -98.459287 276 2024ft 212kts
20-May-20 08:41 34.061422 -98.504592 225 2052ft 203kts
20-May-20 08:42 34.009122 -98.492222 157 2073ft 204kts
20-May-20 08:43 34.028352 -98.487005 294 1750ft 124kts
20-May-20 08:44 34.003995 -98.489724 155 1091ft 120kts
20-May-20 08:45 34.006444 -98.476833 341 2017ft 151kts
20-May-20 08:46 34.021998 -98.497459 182 1332ft 122kts
20-May-20 08:47 33.989883 -98.483329 156 1557ft 186kts
20-May-20 08:48 34.002257 -98.449305 341 2090ft 203kts
20-May-20 08:49 34.058599 -98.470052 347 1953ft 211kts
20-May-20 08:50 34.099499 -98.497811 272 1486ft 187kts
20-May-20 08:51 34.070458 -98.522236 175 1491ft 154kts
20-May-20 08:52 34.034202 -98.504419 156 1549ft 129kts
20-May-20 08:53 34.003117 -98.489447 156 1096ft 127kts
20-May-20 08:54 33.983599 -98.448213 53 1673ft 205kts
20-May-20 08:55 34.033798 -98.466578 339 2055ft 216kts
20-May-20 08:56 34.057724 -98.508950 225 2007ft 205kts
20-May-20 08:57 34.005045 -98.489831 136 2019ft 199kts
20-May-20 08:58 34.027423 -98.493816 228 1510ft 117kts
20-May-20 08:59 33.997846 -98.487091 157 1371ft 156kts
20-May-20 09:00 33.991073 -98.448897 342 2061ft 200kts
20-May-20 09:01 34.048262 -98.468280 351 2014ft 218kts
20-May-20 09:02 34.048389 -98.509853 180 2064ft 204kts
20-May-20 09:03 34.005955 -98.479206 35 2000ft 171kts
20-May-20 09:04 34.023724 -98.497029 194 1560ft 124kts
20-May-20 09:05 33.994945 -98.484987 152 1292ft 167kts
20-May-20 09:06 34.020471 -98.481671 345 2018ft 122kts
20-May-20 09:07 34.008631 -98.491952 158 1023ft 96kts
20-May-20 09:08 33.979213 -98.463359 60 1502ft 187kts
20-May-20 09:09 34.022776 -98.466153 345 1968ft 204kts
20-May-20 09:10 34.066716 -98.492149 252 2003ft 200kts
20-May-20 09:11 34.027299 -98.501069 159 3930ft 141kts
20-May-20 09:12 34.010362 -98.478517 2 2546ft 139kts
20-May-20 09:13 34.002548 -98.489116 157 1029ft 92kts
20-May-20 09:14 33.992623 -98.471529 344 1978ft 130kts
20-May-20 09:15 34.026275 -98.485021 300 1993ft 126kts
20-May-20 09:16 33.999622 -98.487620 156 1311ft 167kts
20-May-20 09:17 34.005522 -98.461697 347 2051ft 204kts
20-May-20 09:18 34.061832 -98.478714 320 2010ft 213kts
20-May-20 09:19 34.027554 -98.501134 158 2012ft 209kts
20-May-20 09:20 34.018036 -98.480493 342 1885ft 122kts
20-May-20 09:21 34.013695 -98.494514 159 1083ft 108kts
20-May-20 09:22 33.996396 -98.486290 165 1022ft 29kts

Navigation Log

Ident Type
Flight plan parsing failed, navigation log unavailable